sensor_id;sensor_type;location;lat;lon;timestamp;temperature;humidity
23114;DHT22;11726;50.122;8.832;2023-02-28T00:00:38;1.20;99.90
23114;DHT22;11726;50.122;8.832;2023-02-28T00:03:05;1.10;99.90
23114;DHT22;11726;50.122;8.832;2023-02-28T00:05:32;1.00;99.90
23114;DHT22;11726;50.122;8.832;2023-02-28T00:07:59;1.00;99.90
23114;DHT22;11726;50.122;8.832;2023-02-28T00:10:28;0.90;99.90
23114;DHT22;11726;50.122;8.832;2023-02-28T00:12:59;0.90;99.90
23114;DHT22;11726;50.122;8.832;2023-02-28T00:15:26;0.90;99.90
23114;DHT22;11726;50.122;8.832;2023-02-28T00:17:53;0.80;99.90
23114;DHT22;11726;50.122;8.832;2023-02-28T00:20:20;0.90;99.90
23114;DHT22;11726;50.122;8.832;2023-02-28T00:22:49;0.80;99.90
23114;DHT22;11726;50.122;8.832;2023-02-28T00:25:22;0.80;99.90
23114;DHT22;11726;50.122;8.832;2023-02-28T00:27:50;0.80;99.90
23114;DHT22;11726;50.122;8.832;2023-02-28T00:30:19;0.80;99.90
23114;DHT22;11726;50.122;8.832;2023-02-28T00:32:46;0.70;99.90
23114;DHT22;11726;50.122;8.832;2023-02-28T00:35:13;0.70;99.90
23114;DHT22;11726;50.122;8.832;2023-02-28T00:37:40;0.80;99.90
23114;DHT22;11726;50.122;8.832;2023-02-28T00:40:08;0.70;99.90
23114;DHT22;11726;50.122;8.832;2023-02-28T00:42:36;0.80;99.90
23114;DHT22;11726;50.122;8.832;2023-02-28T00:45:03;0.80;99.90
23114;DHT22;11726;50.122;8.832;2023-02-28T00:47:32;0.80;99.90
23114;DHT22;11726;50.122;8.832;2023-02-28T00:49:59;0.80;99.90
23114;DHT22;11726;50.122;8.832;2023-02-28T00:52:25;0.70;99.90
23114;DHT22;11726;50.122;8.832;2023-02-28T00:54:52;0.70;99.90
23114;DHT22;11726;50.122;8.832;2023-02-28T00:57:19;0.70;99.90
23114;DHT22;11726;50.122;8.832;2023-02-28T00:59:46;0.70;99.90
23114;DHT22;11726;50.122;8.832;2023-02-28T01:02:12;0.70;99.90
23114;DHT22;11726;50.122;8.832;2023-02-28T01:04:39;0.70;99.90
23114;DHT22;11726;50.122;8.832;2023-02-28T01:07:06;0.70;99.90
23114;DHT22;11726;50.122;8.832;2023-02-28T01:09:32;0.60;99.90
23114;DHT22;11726;50.122;8.832;2023-02-28T01:11:59;0.60;99.90
23114;DHT22;11726;50.122;8.832;2023-02-28T01:14:26;0.50;99.90
23114;DHT22;11726;50.122;8.832;2023-02-28T01:16:52;0.60;99.90
23114;DHT22;11726;50.122;8.832;2023-02-28T01:19:19;0.50;99.90
23114;DHT22;11726;50.122;8.832;2023-02-28T01:21:47;0.50;99.90
23114;DHT22;11726;50.122;8.832;2023-02-28T01:24:14;0.60;99.90
23114;DHT22;11726;50.122;8.832;2023-02-28T01:26:41;0.60;99.90
23114;DHT22;11726;50.122;8.832;2023-02-28T01:29:07;0.40;99.90
23114;DHT22;11726;50.122;8.832;2023-02-28T01:31:34;0.40;99.90
23114;DHT22;11726;50.122;8.832;2023-02-28T01:34:01;0.40;99.90
23114;DHT22;11726;50.122;8.832;2023-02-28T01:36:29;0.40;99.90
23114;DHT22;11726;50.122;8.832;2023-02-28T01:38:55;0.40;99.90
23114;DHT22;11726;50.122;8.832;2023-02-28T01:41:28;0.30;99.90
23114;DHT22;11726;50.122;8.832;2023-02-28T01:44:07;0.30;99.90
23114;DHT22;11726;50.122;8.832;2023-02-28T01:46:52;0.30;99.90
23114;DHT22;11726;50.122;8.832;2023-02-28T01:49:19;0.20;99.90
23114;DHT22;11726;50.122;8.832;2023-02-28T01:51:51;0.20;99.90
23114;DHT22;11726;50.122;8.832;2023-02-28T01:54:27;0.20;99.90
23114;DHT22;11726;50.122;8.832;2023-02-28T01:57:05;0.10;99.90
23114;DHT22;11726;50.122;8.832;2023-02-28T01:59:43;0.10;99.90
23114;DHT22;11726;50.122;8.832;2023-02-28T02:02:13;0.20;99.90
23114;DHT22;11726;50.122;8.832;2023-02-28T02:04:50;0.10;99.90
23114;DHT22;11726;50.122;8.832;2023-02-28T02:07:17;0.10;99.90
23114;DHT22;11726;50.122;8.832;2023-02-28T02:09:44;0.10;99.90
23114;DHT22;11726;50.122;8.832;2023-02-28T02:15:19;0.00;99.90
23114;DHT22;11726;50.122;8.832;2023-02-28T02:17:46;0.00;99.90
23114;DHT22;11726;50.122;8.832;2023-02-28T02:37:52;-0.10;99.90
23114;DHT22;11726;50.122;8.832;2023-02-28T02:40:25;-0.10;99.90
23114;DHT22;11726;50.122;8.832;2023-02-28T02:43:16;-0.10;99.90
23114;DHT22;11726;50.122;8.832;2023-02-28T02:45:55;-0.10;99.90
23114;DHT22;11726;50.122;8.832;2023-02-28T02:48:26;-0.10;99.90
23114;DHT22;11726;50.122;8.832;2023-02-28T02:51:05;-0.20;99.90
23114;DHT22;11726;50.122;8.832;2023-02-28T02:53:44;-0.10;99.90
23114;DHT22;11726;50.122;8.832;2023-02-28T02:56:12;-0.10;99.90
23114;DHT22;11726;50.122;8.832;2023-02-28T02:58:41;-0.20;99.90
23114;DHT22;11726;50.122;8.832;2023-02-28T03:01:16;-0.20;99.90
23114;DHT22;11726;50.122;8.832;2023-02-28T03:03:55;-0.10;99.90
23114;DHT22;11726;50.122;8.832;2023-02-28T03:06:24;-0.20;99.90
23114;DHT22;11726;50.122;8.832;2023-02-28T03:08:51;-0.30;99.90
23114;DHT22;11726;50.122;8.832;2023-02-28T03:11:17;-0.20;99.90
23114;DHT22;11726;50.122;8.832;2023-02-28T03:13:54;-0.10;99.90
23114;DHT22;11726;50.122;8.832;2023-02-28T03:22:24;-0.20;99.90
23114;DHT22;11726;50.122;8.832;2023-02-28T03:25:01;-0.20;99.90
23114;DHT22;11726;50.122;8.832;2023-02-28T03:27:35;-0.20;99.90
23114;DHT22;11726;50.122;8.832;2023-02-28T03:30:06;-0.20;99.90
23114;DHT22;11726;50.122;8.832;2023-02-28T03:32:37;-0.20;99.90
23114;DHT22;11726;50.122;8.832;2023-02-28T03:35:10;-0.20;99.90
23114;DHT22;11726;50.122;8.832;2023-02-28T03:37:42;-0.20;99.90
23114;DHT22;11726;50.122;8.832;2023-02-28T03:40:17;-0.20;99.90
23114;DHT22;11726;50.122;8.832;2023-02-28T03:42:49;-0.20;99.90
23114;DHT22;11726;50.122;8.832;2023-02-28T03:45:26;-0.20;99.90
23114;DHT22;11726;50.122;8.832;2023-02-28T03:48:02;-0.30;99.90
23114;DHT22;11726;50.122;8.832;2023-02-28T03:50:37;-0.30;99.90
23114;DHT22;11726;50.122;8.832;2023-02-28T03:53:16;-0.30;99.90
23114;DHT22;11726;50.122;8.832;2023-02-28T03:55:48;-0.30;99.90
23114;DHT22;11726;50.122;8.832;2023-02-28T03:58:24;-0.20;99.90
23114;DHT22;11726;50.122;8.832;2023-02-28T04:01:05;-0.30;99.90
23114;DHT22;11726;50.122;8.832;2023-02-28T04:03:38;-0.30;99.90
23114;DHT22;11726;50.122;8.832;2023-02-28T04:06:15;-0.20;99.90
23114;DHT22;11726;50.122;8.832;2023-02-28T04:08:43;-0.20;99.90
23114;DHT22;11726;50.122;8.832;2023-02-28T04:11:20;-0.20;99.90
23114;DHT22;11726;50.122;8.832;2023-02-28T04:13:47;-0.20;99.90
23114;DHT22;11726;50.122;8.832;2023-02-28T04:16:14;-0.20;99.90
23114;DHT22;11726;50.122;8.832;2023-02-28T04:18:59;-0.10;99.90
23114;DHT22;11726;50.122;8.832;2023-02-28T04:21:31;-0.10;99.90
23114;DHT22;11726;50.122;8.832;2023-02-28T04:23:58;-0.10;99.90
23114;DHT22;11726;50.122;8.832;2023-02-28T04:26:34;-0.10;99.90
23114;DHT22;11726;50.122;8.832;2023-02-28T04:29:04;-0.10;99.90
23114;DHT22;11726;50.122;8.832;2023-02-28T04:31:31;-0.10;99.90
23114;DHT22;11726;50.122;8.832;2023-02-28T04:33:58;0.00;99.90
23114;DHT22;11726;50.122;8.832;2023-02-28T04:36:25;0.00;99.90
23114;DHT22;11726;50.122;8.832;2023-02-28T04:38:52;0.00;99.90
23114;DHT22;11726;50.122;8.832;2023-02-28T04:41:19;0.00;99.90
23114;DHT22;11726;50.122;8.832;2023-02-28T04:43:45;0.00;99.90
23114;DHT22;11726;50.122;8.832;2023-02-28T04:46:12;0.10;99.90
23114;DHT22;11726;50.122;8.832;2023-02-28T04:48:40;0.00;99.90
23114;DHT22;11726;50.122;8.832;2023-02-28T04:51:11;0.10;99.90
23114;DHT22;11726;50.122;8.832;2023-02-28T04:53:39;0.00;99.90
23114;DHT22;11726;50.122;8.832;2023-02-28T04:56:07;0.10;99.90
23114;DHT22;11726;50.122;8.832;2023-02-28T04:58:34;0.10;99.90
23114;DHT22;11726;50.122;8.832;2023-02-28T05:01:04;0.10;99.90
23114;DHT22;11726;50.122;8.832;2023-02-28T05:03:31;0.20;99.90
23114;DHT22;11726;50.122;8.832;2023-02-28T05:05:57;0.20;99.90
23114;DHT22;11726;50.122;8.832;2023-02-28T05:08:24;0.20;99.90
23114;DHT22;11726;50.122;8.832;2023-02-28T05:10:51;0.20;99.90
23114;DHT22;11726;50.122;8.832;2023-02-28T05:13:18;0.20;99.90
23114;DHT22;11726;50.122;8.832;2023-02-28T05:15:44;0.10;99.90
23114;DHT22;11726;50.122;8.832;2023-02-28T05:18:11;0.20;99.90
23114;DHT22;11726;50.122;8.832;2023-02-28T05:20:37;0.20;99.90
23114;DHT22;11726;50.122;8.832;2023-02-28T05:23:04;0.20;99.90
23114;DHT22;11726;50.122;8.832;2023-02-28T05:25:31;0.20;99.90
23114;DHT22;11726;50.122;8.832;2023-02-28T05:27:57;0.20;99.90
23114;DHT22;11726;50.122;8.832;2023-02-28T05:30:24;0.10;99.90
23114;DHT22;11726;50.122;8.832;2023-02-28T05:32:51;0.20;99.90
23114;DHT22;11726;50.122;8.832;2023-02-28T05:35:18;0.10;99.90
23114;DHT22;11726;50.122;8.832;2023-02-28T05:37:44;0.20;99.90
23114;DHT22;11726;50.122;8.832;2023-02-28T05:40:11;0.10;99.90
23114;DHT22;11726;50.122;8.832;2023-02-28T05:42:38;0.20;99.90
23114;DHT22;11726;50.122;8.832;2023-02-28T05:45:05;0.20;99.90
23114;DHT22;11726;50.122;8.832;2023-02-28T05:47:33;0.20;99.90
23114;DHT22;11726;50.122;8.832;2023-02-28T05:50:00;0.20;99.90
23114;DHT22;11726;50.122;8.832;2023-02-28T05:52:28;0.10;99.90
23114;DHT22;11726;50.122;8.832;2023-02-28T05:54:56;0.10;99.90
23114;DHT22;11726;50.122;8.832;2023-02-28T05:57:23;0.10;99.90
23114;DHT22;11726;50.122;8.832;2023-02-28T05:59:50;0.10;99.90
23114;DHT22;11726;50.122;8.832;2023-02-28T06:02:17;0.10;99.90
23114;DHT22;11726;50.122;8.832;2023-02-28T06:04:44;0.10;99.90
23114;DHT22;11726;50.122;8.832;2023-02-28T06:07:11;0.10;99.90
23114;DHT22;11726;50.122;8.832;2023-02-28T06:09:38;0.00;99.90
23114;DHT22;11726;50.122;8.832;2023-02-28T06:12:06;0.00;99.90
23114;DHT22;11726;50.122;8.832;2023-02-28T06:14:35;0.00;99.90
23114;DHT22;11726;50.122;8.832;2023-02-28T06:17:03;0.00;99.90
23114;DHT22;11726;50.122;8.832;2023-02-28T06:19:30;0.10;99.90
23114;DHT22;11726;50.122;8.832;2023-02-28T06:21:57;0.00;99.90
23114;DHT22;11726;50.122;8.832;2023-02-28T06:24:26;0.00;99.90
23114;DHT22;11726;50.122;8.832;2023-02-28T06:26:54;0.00;99.90
23114;DHT22;11726;50.122;8.832;2023-02-28T06:29:21;-0.10;99.90
23114;DHT22;11726;50.122;8.832;2023-02-28T06:31:48;-0.10;99.90
23114;DHT22;11726;50.122;8.832;2023-02-28T06:34:15;-0.20;99.90
23114;DHT22;11726;50.122;8.832;2023-02-28T06:36:42;-0.20;99.90
23114;DHT22;11726;50.122;8.832;2023-02-28T06:39:09;-0.20;99.90
23114;DHT22;11726;50.122;8.832;2023-02-28T06:41:36;-0.10;99.90
23114;DHT22;11726;50.122;8.832;2023-02-28T06:44:21;-0.10;99.90
23114;DHT22;11726;50.122;8.832;2023-02-28T06:46:48;-0.10;99.90
23114;DHT22;11726;50.122;8.832;2023-02-28T06:49:15;-0.10;99.90
23114;DHT22;11726;50.122;8.832;2023-02-28T06:51:43;0.10;99.90
23114;DHT22;11726;50.122;8.832;2023-02-28T06:54:11;0.10;99.90
23114;DHT22;11726;50.122;8.832;2023-02-28T06:56:38;0.10;99.90
23114;DHT22;11726;50.122;8.832;2023-02-28T06:59:05;0.10;99.90
23114;DHT22;11726;50.122;8.832;2023-02-28T07:01:32;0.20;99.90
23114;DHT22;11726;50.122;8.832;2023-02-28T07:04:00;0.30;99.90
23114;DHT22;11726;50.122;8.832;2023-02-28T07:06:27;0.30;99.90
23114;DHT22;11726;50.122;8.832;2023-02-28T07:08:54;0.40;99.90
23114;DHT22;11726;50.122;8.832;2023-02-28T07:11:22;0.50;99.90
23114;DHT22;11726;50.122;8.832;2023-02-28T07:13:50;0.50;99.90
23114;DHT22;11726;50.122;8.832;2023-02-28T07:16:17;0.60;99.90
23114;DHT22;11726;50.122;8.832;2023-02-28T07:18:44;0.70;99.90
23114;DHT22;11726;50.122;8.832;2023-02-28T07:21:11;0.80;99.90
23114;DHT22;11726;50.122;8.832;2023-02-28T07:23:39;0.90;99.90
23114;DHT22;11726;50.122;8.832;2023-02-28T07:26:07;1.00;99.90
23114;DHT22;11726;50.122;8.832;2023-02-28T07:28:34;1.00;99.90
23114;DHT22;11726;50.122;8.832;2023-02-28T07:31:07;1.00;99.90
23114;DHT22;11726;50.122;8.832;2023-02-28T07:33:34;1.10;99.90
23114;DHT22;11726;50.122;8.832;2023-02-28T07:36:03;1.20;99.90
23114;DHT22;11726;50.122;8.832;2023-02-28T07:38:33;1.20;99.90
23114;DHT22;11726;50.122;8.832;2023-02-28T07:41:00;1.40;99.90
23114;DHT22;11726;50.122;8.832;2023-02-28T07:43:27;1.40;99.90
23114;DHT22;11726;50.122;8.832;2023-02-28T07:45:54;1.50;99.90
23114;DHT22;11726;50.122;8.832;2023-02-28T07:48:20;1.60;99.90
23114;DHT22;11726;50.122;8.832;2023-02-28T07:50:54;1.50;99.90
23114;DHT22;11726;50.122;8.832;2023-02-28T07:53:22;1.60;99.90
23114;DHT22;11726;50.122;8.832;2023-02-28T07:55:48;1.60;99.90
23114;DHT22;11726;50.122;8.832;2023-02-28T07:58:15;1.70;99.90
23114;DHT22;11726;50.122;8.832;2023-02-28T08:00:42;1.80;99.90
23114;DHT22;11726;50.122;8.832;2023-02-28T08:03:11;1.80;99.90
23114;DHT22;11726;50.122;8.832;2023-02-28T08:05:41;1.90;99.90
23114;DHT22;11726;50.122;8.832;2023-02-28T08:08:08;1.90;99.90
23114;DHT22;11726;50.122;8.832;2023-02-28T08:10:35;2.00;99.90
23114;DHT22;11726;50.122;8.832;2023-02-28T08:13:02;2.10;99.90
23114;DHT22;11726;50.122;8.832;2023-02-28T08:15:29;2.10;99.90
23114;DHT22;11726;50.122;8.832;2023-02-28T08:17:56;2.30;99.90
23114;DHT22;11726;50.122;8.832;2023-02-28T08:20:25;2.50;99.90
23114;DHT22;11726;50.122;8.832;2023-02-28T08:22:51;2.50;99.90
23114;DHT22;11726;50.122;8.832;2023-02-28T08:25:19;2.40;99.90
23114;DHT22;11726;50.122;8.832;2023-02-28T08:27:45;2.50;99.90
23114;DHT22;11726;50.122;8.832;2023-02-28T08:30:14;2.40;99.90
23114;DHT22;11726;50.122;8.832;2023-02-28T08:32:41;2.60;99.90
23114;DHT22;11726;50.122;8.832;2023-02-28T08:35:08;2.70;99.90
23114;DHT22;11726;50.122;8.832;2023-02-28T08:37:38;2.70;99.90
23114;DHT22;11726;50.122;8.832;2023-02-28T08:40:05;2.90;99.90
23114;DHT22;11726;50.122;8.832;2023-02-28T08:42:32;2.90;99.90
23114;DHT22;11726;50.122;8.832;2023-02-28T08:44:59;2.80;99.90
23114;DHT22;11726;50.122;8.832;2023-02-28T08:47:25;3.00;99.90
23114;DHT22;11726;50.122;8.832;2023-02-28T08:49:52;2.90;99.90
23114;DHT22;11726;50.122;8.832;2023-02-28T08:52:19;3.00;99.90
23114;DHT22;11726;50.122;8.832;2023-02-28T08:54:46;3.20;99.70
23114;DHT22;11726;50.122;8.832;2023-02-28T08:57:13;3.10;99.60
23114;DHT22;11726;50.122;8.832;2023-02-28T08:59:40;2.70;99.90
23114;DHT22;11726;50.122;8.832;2023-02-28T09:02:08;2.70;99.90
23114;DHT22;11726;50.122;8.832;2023-02-28T09:04:36;2.80;99.90
23114;DHT22;11726;50.122;8.832;2023-02-28T09:07:02;2.90;99.70
23114;DHT22;11726;50.122;8.832;2023-02-28T09:09:29;3.10;99.80
23114;DHT22;11726;50.122;8.832;2023-02-28T09:11:56;3.10;99.10
23114;DHT22;11726;50.122;8.832;2023-02-28T09:14:23;3.10;98.90
23114;DHT22;11726;50.122;8.832;2023-02-28T09:16:49;3.20;99.00
23114;DHT22;11726;50.122;8.832;2023-02-28T09:19:16;3.20;98.80
23114;DHT22;11726;50.122;8.832;2023-02-28T09:21:43;3.40;98.70
23114;DHT22;11726;50.122;8.832;2023-02-28T09:24:10;3.50;98.10
23114;DHT22;11726;50.122;8.832;2023-02-28T09:26:38;3.50;98.10
23114;DHT22;11726;50.122;8.832;2023-02-28T09:29:17;3.60;97.70
23114;DHT22;11726;50.122;8.832;2023-02-28T09:31:43;3.50;97.30
23114;DHT22;11726;50.122;8.832;2023-02-28T09:34:11;3.30;97.20
23114;DHT22;11726;50.122;8.832;2023-02-28T09:36:37;3.50;97.20
23114;DHT22;11726;50.122;8.832;2023-02-28T09:39:11;3.30;97.30
23114;DHT22;11726;50.122;8.832;2023-02-28T09:41:43;3.30;97.70
23114;DHT22;11726;50.122;8.832;2023-02-28T09:44:37;3.50;97.40
23114;DHT22;11726;50.122;8.832;2023-02-28T09:47:29;3.50;97.20
23114;DHT22;11726;50.122;8.832;2023-02-28T09:50:03;3.40;97.60
23114;DHT22;11726;50.122;8.832;2023-02-28T09:52:32;3.30;97.90
23114;DHT22;11726;50.122;8.832;2023-02-28T09:55:51;3.30;97.20
23114;DHT22;11726;50.122;8.832;2023-02-28T09:58:20;3.00;98.00
23114;DHT22;11726;50.122;8.832;2023-02-28T10:00:57;3.10;97.60
23114;DHT22;11726;50.122;8.832;2023-02-28T10:03:26;3.40;97.40
23114;DHT22;11726;50.122;8.832;2023-02-28T10:06:04;3.50;97.50
23114;DHT22;11726;50.122;8.832;2023-02-28T10:11:23;3.60;96.40
23114;DHT22;11726;50.122;8.832;2023-02-28T10:14:20;3.70;96.30
23114;DHT22;11726;50.122;8.832;2023-02-28T10:16:52;3.80;96.40
23114;DHT22;11726;50.122;8.832;2023-02-28T10:19:27;3.80;96.40
23114;DHT22;11726;50.122;8.832;2023-02-28T10:22:03;3.80;95.60
23114;DHT22;11726;50.122;8.832;2023-02-28T10:24:42;3.90;94.90
23114;DHT22;11726;50.122;8.832;2023-02-28T10:29:50;3.70;94.80
23114;DHT22;11726;50.122;8.832;2023-02-28T10:32:19;3.70;95.00
23114;DHT22;11726;50.122;8.832;2023-02-28T10:37:40;3.80;94.30
23114;DHT22;11726;50.122;8.832;2023-02-28T10:40:32;3.90;94.40
23114;DHT22;11726;50.122;8.832;2023-02-28T10:43:21;3.90;94.40
23114;DHT22;11726;50.122;8.832;2023-02-28T10:45:57;4.00;94.10
23114;DHT22;11726;50.122;8.832;2023-02-28T10:48:40;3.90;93.90
23114;DHT22;11726;50.122;8.832;2023-02-28T10:51:14;4.00;94.10
23114;DHT22;11726;50.122;8.832;2023-02-28T10:53:49;4.20;94.10
23114;DHT22;11726;50.122;8.832;2023-02-28T10:56:28;4.40;93.70
23114;DHT22;11726;50.122;8.832;2023-02-28T11:03:57;5.10;92.50
23114;DHT22;11726;50.122;8.832;2023-02-28T11:06:30;5.40;91.90
23114;DHT22;11726;50.122;8.832;2023-02-28T11:09:04;5.70;91.50
23114;DHT22;11726;50.122;8.832;2023-02-28T11:11:43;6.10;91.30
23114;DHT22;11726;50.122;8.832;2023-02-28T11:14:47;6.20;90.30
23114;DHT22;11726;50.122;8.832;2023-02-28T11:17:20;6.50;89.50
23114;DHT22;11726;50.122;8.832;2023-02-28T11:19:51;6.80;89.80
23114;DHT22;11726;50.122;8.832;2023-02-28T11:22:21;6.60;89.90
23114;DHT22;11726;50.122;8.832;2023-02-28T11:24:53;6.40;89.60
23114;DHT22;11726;50.122;8.832;2023-02-28T11:29:58;6.20;89.40
23114;DHT22;11726;50.122;8.832;2023-02-28T11:32:26;6.20;88.70
23114;DHT22;11726;50.122;8.832;2023-02-28T11:37:31;5.80;88.70
23114;DHT22;11726;50.122;8.832;2023-02-28T11:39:59;6.00;88.50
23114;DHT22;11726;50.122;8.832;2023-02-28T11:45:22;5.90;86.70
23114;DHT22;11726;50.122;8.832;2023-02-28T11:48:16;5.90;87.00
23114;DHT22;11726;50.122;8.832;2023-02-28T11:56:09;6.30;86.90
23114;DHT22;11726;50.122;8.832;2023-02-28T11:59:04;6.00;85.00
23114;DHT22;11726;50.122;8.832;2023-02-28T12:04:45;6.00;84.80
23114;DHT22;11726;50.122;8.832;2023-02-28T12:07:30;5.60;86.80
23114;DHT22;11726;50.122;8.832;2023-02-28T12:10:18;5.60;87.20
23114;DHT22;11726;50.122;8.832;2023-02-28T12:21:53;6.70;85.30
23114;DHT22;11726;50.122;8.832;2023-02-28T12:27:13;7.00;81.60
23114;DHT22;11726;50.122;8.832;2023-02-28T12:29:56;7.10;80.60
23114;DHT22;11726;50.122;8.832;2023-02-28T12:32:30;6.90;80.00
23114;DHT22;11726;50.122;8.832;2023-02-28T12:35:11;6.80;81.40
23114;DHT22;11726;50.122;8.832;2023-02-28T12:37:43;7.40;81.90
23114;DHT22;11726;50.122;8.832;2023-02-28T12:40:16;7.10;80.40
23114;DHT22;11726;50.122;8.832;2023-02-28T12:42:47;6.70;81.60
23114;DHT22;11726;50.122;8.832;2023-02-28T12:45:19;6.70;82.50
23114;DHT22;11726;50.122;8.832;2023-02-28T12:47:57;6.60;81.80
23114;DHT22;11726;50.122;8.832;2023-02-28T12:50:24;6.90;82.50
23114;DHT22;11726;50.122;8.832;2023-02-28T12:56:20;6.90;81.20
23114;DHT22;11726;50.122;8.832;2023-02-28T12:59:13;7.30;79.90
23114;DHT22;11726;50.122;8.832;2023-02-28T13:08:18;7.40;79.10
23114;DHT22;11726;50.122;8.832;2023-02-28T13:10:50;8.10;76.80
23114;DHT22;11726;50.122;8.832;2023-02-28T13:13:26;7.70;76.30
23114;DHT22;11726;50.122;8.832;2023-02-28T13:16:07;7.60;77.00
23114;DHT22;11726;50.122;8.832;2023-02-28T13:18:44;8.00;77.60
23114;DHT22;11726;50.122;8.832;2023-02-28T13:21:27;8.20;76.00
23114;DHT22;11726;50.122;8.832;2023-02-28T13:23:57;8.10;75.30
23114;DHT22;11726;50.122;8.832;2023-02-28T13:29:04;8.10;75.80
23114;DHT22;11726;50.122;8.832;2023-02-28T13:34:36;8.20;75.00
23114;DHT22;11726;50.122;8.832;2023-02-28T13:40:31;8.20;75.10
23114;DHT22;11726;50.122;8.832;2023-02-28T13:43:08;8.20;75.70
23114;DHT22;11726;50.122;8.832;2023-02-28T13:45:35;8.00;74.60
23114;DHT22;11726;50.122;8.832;2023-02-28T13:48:16;8.00;75.80
23114;DHT22;11726;50.122;8.832;2023-02-28T13:50:44;8.00;75.60
23114;DHT22;11726;50.122;8.832;2023-02-28T14:06:56;8.90;71.30
23114;DHT22;11726;50.122;8.832;2023-02-28T14:09:35;8.90;72.00
23114;DHT22;11726;50.122;8.832;2023-02-28T14:15:49;8.60;72.20
23114;DHT22;11726;50.122;8.832;2023-02-28T14:18:35;8.80;71.50
23114;DHT22;11726;50.122;8.832;2023-02-28T14:21:22;9.00;72.10
23114;DHT22;11726;50.122;8.832;2023-02-28T14:30:10;8.70;71.90
23114;DHT22;11726;50.122;8.832;2023-02-28T14:33:04;8.50;72.50
23114;DHT22;11726;50.122;8.832;2023-02-28T14:38:42;7.80;75.20
23114;DHT22;11726;50.122;8.832;2023-02-28T14:43:59;7.70;75.20
23114;DHT22;11726;50.122;8.832;2023-02-28T14:46:36;7.60;75.80
23114;DHT22;11726;50.122;8.832;2023-02-28T14:51:49;7.50;76.60
23114;DHT22;11726;50.122;8.832;2023-02-28T14:54:19;7.80;76.00
23114;DHT22;11726;50.122;8.832;2023-02-28T14:56:50;7.70;75.90
23114;DHT22;11726;50.122;8.832;2023-02-28T14:59:35;7.50;75.70
23114;DHT22;11726;50.122;8.832;2023-02-28T15:02:24;7.60;77.60
23114;DHT22;11726;50.122;8.832;2023-02-28T15:04:56;7.40;76.00
23114;DHT22;11726;50.122;8.832;2023-02-28T15:07:24;7.50;76.80
23114;DHT22;11726;50.122;8.832;2023-02-28T15:10:30;7.70;76.30
23114;DHT22;11726;50.122;8.832;2023-02-28T15:13:02;7.50;76.20
23114;DHT22;11726;50.122;8.832;2023-02-28T15:15:59;7.40;76.70
23114;DHT22;11726;50.122;8.832;2023-02-28T15:19:05;7.30;77.00
23114;DHT22;11726;50.122;8.832;2023-02-28T15:21:34;7.90;76.90
23114;DHT22;11726;50.122;8.832;2023-02-28T15:24:10;8.10;77.00
23114;DHT22;11726;50.122;8.832;2023-02-28T15:26:43;8.10;76.30
23114;DHT22;11726;50.122;8.832;2023-02-28T15:29:15;8.10;76.70
23114;DHT22;11726;50.122;8.832;2023-02-28T15:31:45;7.90;77.00
23114;DHT22;11726;50.122;8.832;2023-02-28T15:34:43;8.00;76.90
23114;DHT22;11726;50.122;8.832;2023-02-28T15:40:16;7.80;77.30
23114;DHT22;11726;50.122;8.832;2023-02-28T15:42:58;7.40;78.20
23114;DHT22;11726;50.122;8.832;2023-02-28T15:48:19;7.20;80.60
23114;DHT22;11726;50.122;8.832;2023-02-28T15:50:47;7.20;81.30
23114;DHT22;11726;50.122;8.832;2023-02-28T15:53:17;7.20;81.50
23114;DHT22;11726;50.122;8.832;2023-02-28T15:55:55;7.00;81.90
23114;DHT22;11726;50.122;8.832;2023-02-28T15:58:24;6.90;82.10
23114;DHT22;11726;50.122;8.832;2023-02-28T16:01:05;6.60;83.10
23114;DHT22;11726;50.122;8.832;2023-02-28T16:03:45;6.40;84.20
23114;DHT22;11726;50.122;8.832;2023-02-28T16:08:48;6.10;85.10
23114;DHT22;11726;50.122;8.832;2023-02-28T16:11:19;6.00;86.40
23114;DHT22;11726;50.122;8.832;2023-02-28T16:13:46;6.00;86.70
23114;DHT22;11726;50.122;8.832;2023-02-28T16:16:18;6.10;87.80
23114;DHT22;11726;50.122;8.832;2023-02-28T16:18:45;6.10;87.40
23114;DHT22;11726;50.122;8.832;2023-02-28T16:21:12;6.00;86.90
23114;DHT22;11726;50.122;8.832;2023-02-28T16:23:39;5.80;88.10
23114;DHT22;11726;50.122;8.832;2023-02-28T16:26:06;5.70;88.40
23114;DHT22;11726;50.122;8.832;2023-02-28T16:28:35;5.60;89.00
23114;DHT22;11726;50.122;8.832;2023-02-28T16:31:05;5.60;89.10
23114;DHT22;11726;50.122;8.832;2023-02-28T16:33:33;5.50;90.00
23114;DHT22;11726;50.122;8.832;2023-02-28T16:36:00;5.50;89.70
23114;DHT22;11726;50.122;8.832;2023-02-28T16:38:27;5.50;90.30
23114;DHT22;11726;50.122;8.832;2023-02-28T16:40:56;5.40;89.50
23114;DHT22;11726;50.122;8.832;2023-02-28T16:43:25;5.40;90.00
23114;DHT22;11726;50.122;8.832;2023-02-28T16:45:58;5.30;89.80
23114;DHT22;11726;50.122;8.832;2023-02-28T16:48:26;5.30;90.20
23114;DHT22;11726;50.122;8.832;2023-02-28T16:50:53;5.30;90.40
23114;DHT22;11726;50.122;8.832;2023-02-28T16:53:20;5.10;90.70
23114;DHT22;11726;50.122;8.832;2023-02-28T16:55:47;5.10;91.00
23114;DHT22;11726;50.122;8.832;2023-02-28T16:58:15;5.00;90.90
23114;DHT22;11726;50.122;8.832;2023-02-28T17:00:42;5.10;91.50
23114;DHT22;11726;50.122;8.832;2023-02-28T17:03:21;5.10;91.60
23114;DHT22;11726;50.122;8.832;2023-02-28T17:05:58;4.90;91.30
23114;DHT22;11726;50.122;8.832;2023-02-28T17:08:24;4.80;91.50
23114;DHT22;11726;50.122;8.832;2023-02-28T17:10:51;4.90;91.70
23114;DHT22;11726;50.122;8.832;2023-02-28T17:13:18;4.70;92.00
23114;DHT22;11726;50.122;8.832;2023-02-28T17:15:45;4.60;92.20
23114;DHT22;11726;50.122;8.832;2023-02-28T17:18:18;4.60;92.40
23114;DHT22;11726;50.122;8.832;2023-02-28T17:20:48;4.60;92.80
23114;DHT22;11726;50.122;8.832;2023-02-28T17:23:15;4.50;92.70
23114;DHT22;11726;50.122;8.832;2023-02-28T17:25:42;4.50;92.90
23114;DHT22;11726;50.122;8.832;2023-02-28T17:28:23;4.40;93.10
23114;DHT22;11726;50.122;8.832;2023-02-28T17:30:49;4.40;93.20
23114;DHT22;11726;50.122;8.832;2023-02-28T17:33:17;4.30;93.30
23114;DHT22;11726;50.122;8.832;2023-02-28T17:35:43;4.30;93.60
23114;DHT22;11726;50.122;8.832;2023-02-28T17:38:18;4.20;94.10
23114;DHT22;11726;50.122;8.832;2023-02-28T17:40:45;4.10;94.50
23114;DHT22;11726;50.122;8.832;2023-02-28T17:43:11;4.00;94.90
23114;DHT22;11726;50.122;8.832;2023-02-28T17:45:38;4.00;95.20
23114;DHT22;11726;50.122;8.832;2023-02-28T17:48:05;4.10;98.20
23114;DHT22;11726;50.122;8.832;2023-02-28T17:50:32;4.00;96.30
23114;DHT22;11726;50.122;8.832;2023-02-28T17:52:59;3.90;96.30
23114;DHT22;11726;50.122;8.832;2023-02-28T17:55:26;3.80;96.60
23114;DHT22;11726;50.122;8.832;2023-02-28T17:57:52;3.80;96.70
23114;DHT22;11726;50.122;8.832;2023-02-28T18:00:20;3.80;96.70
23114;DHT22;11726;50.122;8.832;2023-02-28T18:02:50;3.70;96.90
23114;DHT22;11726;50.122;8.832;2023-02-28T18:12:55;3.60;97.80
23114;DHT22;11726;50.122;8.832;2023-02-28T18:15:22;3.50;98.20
23114;DHT22;11726;50.122;8.832;2023-02-28T18:17:49;3.30;98.70
23114;DHT22;11726;50.122;8.832;2023-02-28T18:20:16;3.30;99.00
23114;DHT22;11726;50.122;8.832;2023-02-28T18:22:43;3.30;99.00
23114;DHT22;11726;50.122;8.832;2023-02-28T18:25:11;3.20;99.10